TVS1106 LKPR-EDDV
Flight info
| Callsign | TVS1106 |
|---|---|
| Flight time | 0h 51m |
| Altitude | 26000 |
| Route | VENOX DCT DEKOV Y621 ESLOR M748 BOLBO DCT BUREL P203 HLZ HLZ1A |
| Aircraft | B736/M-SDE2E3FGHIRWXY/LB1 |
Departure
| Time | 2026-05-01 13:08 |
|---|---|
| Airport | Václav Havel Airport Prague (LKPR) |
Arrival
| Time | 2026-05-01 14:00 |
|---|---|
| Airport | Hannover Airport (EDDV) |
| Time | Latitude | Longitude | Altitude | Speed | Heading |
|---|---|---|---|---|---|
| 2026-05-01 12:38 | 50.10594 | 14.26282 | 1173 ft | 0 kts | 35° |
| 2026-05-01 12:57 | 50.10584 | 14.26272 | 1170 ft | 4 kts | 33° |
| 2026-05-01 12:57 | 50.10562 | 14.26249 | 1170 ft | 4 kts | 31° |
| 2026-05-01 12:58 | 50.10545 | 14.26236 | 1172 ft | 2 kts | 356° |
| 2026-05-01 12:58 | 50.10534 | 14.26244 | 1172 ft | 3 kts | 304° |
| 2026-05-01 12:58 | 50.10521 | 14.26276 | 1169 ft | 3 kts | 307° |
| 2026-05-01 12:59 | 50.10512 | 14.26297 | 1170 ft | 0 kts | 303° |
| 2026-05-01 12:59 | 50.10515 | 14.26289 | 1169 ft | 0 kts | 303° |
| 2026-05-01 13:00 | 50.10535 | 14.26227 | 1169 ft | 6 kts | 288° |
| 2026-05-01 13:00 | 50.10537 | 14.26155 | 1173 ft | 8 kts | 262° |
| 2026-05-01 13:01 | 50.10512 | 14.25995 | 1170 ft | 4 kts | 216° |
| 2026-05-01 13:01 | 50.10487 | 14.26010 | 1174 ft | 4 kts | 139° |
| 2026-05-01 13:01 | 50.10444 | 14.26090 | 1175 ft | 6 kts | 129° |
| 2026-05-01 13:02 | 50.10412 | 14.26156 | 1174 ft | 9 kts | 125° |
| 2026-05-01 13:07 | 50.09136 | 14.28251 | 1210 ft | 15 kts | 218° |
| 2026-05-01 13:07 | 50.09094 | 14.28099 | 1207 ft | 17 kts | 282° |
| 2026-05-01 13:07 | 50.09133 | 14.27985 | 1209 ft | 0 kts | 306° |
| 2026-05-01 13:08 | 50.09248 | 14.27746 | 1211 ft | 73 kts | 307° |
| 2026-05-01 13:08 | 50.09742 | 14.26745 | 1222 ft | 154 kts | 309° |
| 2026-05-01 13:08 | 50.10503 | 14.25277 | 1729 ft | 193 kts | 311° |
| 2026-05-01 13:08 | 50.11378 | 14.23539 | 2602 ft | 202 kts | 320° |
| 2026-05-01 13:09 | 50.12619 | 14.22855 | 3776 ft | 193 kts | 4° |
| 2026-05-01 13:09 | 50.13965 | 14.23516 | 4487 ft | 214 kts | 20° |
| 2026-05-01 13:09 | 50.15454 | 14.24286 | 4929 ft | 238 kts | 17° |
| 2026-05-01 13:09 | 50.17033 | 14.25126 | 5815 ft | 239 kts | 18° |
| 2026-05-01 13:10 | 50.18697 | 14.25275 | 6737 ft | 245 kts | 355° |
| 2026-05-01 13:10 | 50.20401 | 14.24685 | 7430 ft | 260 kts | 348° |
| 2026-05-01 13:10 | 50.22197 | 14.23884 | 8101 ft | 275 kts | 346° |
| 2026-05-01 13:10 | 50.23422 | 14.23315 | 8827 ft | 277 kts | 346° |
| 2026-05-01 13:11 | 50.25274 | 14.22462 | 9995 ft | 279 kts | 347° |
| 2026-05-01 13:11 | 50.27811 | 14.21328 | 11031 ft | 298 kts | 348° |
| 2026-05-01 13:11 | 50.29911 | 14.20405 | 11284 ft | 330 kts | 348° |
| 2026-05-01 13:11 | 50.32187 | 14.19410 | 11897 ft | 345 kts | 348° |
| 2026-05-01 13:12 | 50.33761 | 14.18723 | 12483 ft | 349 kts | 348° |
| 2026-05-01 13:12 | 50.36107 | 14.17696 | 13507 ft | 351 kts | 348° |
| 2026-05-01 13:12 | 50.38491 | 14.16741 | 14388 ft | 355 kts | 353° |
| 2026-05-01 13:12 | 50.40913 | 14.16170 | 15184 ft | 358 kts | 357° |
| 2026-05-01 13:13 | 50.43397 | 14.15738 | 16069 ft | 360 kts | 358° |
| 2026-05-01 13:13 | 50.45905 | 14.15310 | 16907 ft | 364 kts | 357° |
| 2026-05-01 13:13 | 50.48439 | 14.14840 | 17732 ft | 369 kts | 357° |
| 2026-05-01 13:13 | 50.50997 | 14.14329 | 18567 ft | 373 kts | 356° |
| 2026-05-01 13:14 | 50.53582 | 14.13798 | 19304 ft | 377 kts | 356° |
| 2026-05-01 13:14 | 50.56200 | 14.13470 | 20021 ft | 376 kts | 7° |
| 2026-05-01 13:14 | 50.58794 | 14.14000 | 20752 ft | 376 kts | 12° |
| 2026-05-01 13:14 | 50.61392 | 14.14666 | 21474 ft | 379 kts | 12° |
| 2026-05-01 13:15 | 50.63975 | 14.15340 | 22163 ft | 384 kts | 12° |
| 2026-05-01 13:15 | 50.66639 | 14.16022 | 22878 ft | 387 kts | 12° |
| 2026-05-01 13:15 | 50.69309 | 14.16687 | 23596 ft | 390 kts | 11° |
| 2026-05-01 13:15 | 50.72014 | 14.17349 | 24225 ft | 394 kts | 11° |
| 2026-05-01 13:16 | 50.74744 | 14.18010 | 24819 ft | 398 kts | 11° |
| 2026-05-01 13:16 | 50.77480 | 14.18670 | 25417 ft | 400 kts | 11° |
| 2026-05-01 13:16 | 50.80219 | 14.19331 | 25972 ft | 404 kts | 11° |
| 2026-05-01 13:17 | 50.88603 | 14.21290 | 26381 ft | 406 kts | 7° |
| 2026-05-01 13:17 | 50.91436 | 14.21353 | 26383 ft | 409 kts | 358° |
| 2026-05-01 13:18 | 50.97052 | 14.20083 | 26393 ft | 411 kts | 354° |
| 2026-05-01 13:18 | 50.99886 | 14.19416 | 26383 ft | 410 kts | 354° |
| 2026-05-01 13:18 | 51.02716 | 14.18756 | 26390 ft | 411 kts | 352° |
| 2026-05-01 13:18 | 51.05477 | 14.17487 | 26386 ft | 415 kts | 341° |
| 2026-05-01 13:19 | 51.08094 | 14.15490 | 26388 ft | 419 kts | 333° |
| 2026-05-01 13:19 | 51.10481 | 14.12804 | 26393 ft | 423 kts | 323° |
| 2026-05-01 13:19 | 51.14875 | 14.06624 | 26393 ft | 424 kts | 321° |
| 2026-05-01 13:20 | 51.17066 | 14.03494 | 26397 ft | 424 kts | 322° |
| 2026-05-01 13:20 | 51.19285 | 14.00357 | 26398 ft | 424 kts | 322° |
| 2026-05-01 13:20 | 51.21502 | 13.97254 | 26400 ft | 424 kts | 322° |
| 2026-05-01 13:21 | 51.25957 | 13.91049 | 26398 ft | 424 kts | 322° |
| 2026-05-01 13:21 | 51.28178 | 13.87948 | 26396 ft | 424 kts | 322° |
| 2026-05-01 13:21 | 51.30402 | 13.84835 | 26397 ft | 425 kts | 322° |
| 2026-05-01 13:21 | 51.32620 | 13.81725 | 26398 ft | 425 kts | 322° |
| 2026-05-01 13:22 | 51.34840 | 13.78607 | 26396 ft | 425 kts | 322° |
| 2026-05-01 13:22 | 51.37068 | 13.75475 | 26394 ft | 425 kts | 322° |
| 2026-05-01 13:22 | 51.39260 | 13.72390 | 26391 ft | 425 kts | 322° |
| 2026-05-01 13:22 | 51.41483 | 13.69261 | 26389 ft | 425 kts | 322° |
| 2026-05-01 13:23 | 51.43703 | 13.66129 | 26392 ft | 425 kts | 322° |
| 2026-05-01 13:23 | 51.45928 | 13.62985 | 26385 ft | 426 kts | 322° |
| 2026-05-01 13:23 | 51.48149 | 13.59844 | 26391 ft | 426 kts | 321° |
| 2026-05-01 13:23 | 51.50378 | 13.56687 | 26381 ft | 426 kts | 321° |
| 2026-05-01 13:24 | 51.52600 | 13.53538 | 26383 ft | 426 kts | 321° |
| 2026-05-01 13:24 | 51.54825 | 13.50381 | 26391 ft | 427 kts | 321° |
| 2026-05-01 13:24 | 51.57050 | 13.47220 | 26387 ft | 427 kts | 321° |
| 2026-05-01 13:25 | 51.61498 | 13.40892 | 26385 ft | 427 kts | 321° |
| 2026-05-01 13:25 | 51.63719 | 13.37725 | 26388 ft | 427 kts | 321° |
| 2026-05-01 13:25 | 51.65938 | 13.34554 | 26389 ft | 427 kts | 321° |
| 2026-05-01 13:25 | 51.68163 | 13.31368 | 26392 ft | 427 kts | 321° |
| 2026-05-01 13:26 | 51.70356 | 13.28220 | 26402 ft | 427 kts | 321° |
| 2026-05-01 13:26 | 51.72570 | 13.25038 | 26399 ft | 427 kts | 321° |
| 2026-05-01 13:26 | 51.74791 | 13.21844 | 26400 ft | 428 kts | 321° |
| 2026-05-01 13:26 | 51.77013 | 13.18644 | 26404 ft | 428 kts | 321° |
| 2026-05-01 13:27 | 51.79201 | 13.15379 | 26397 ft | 429 kts | 316° |
| 2026-05-01 13:27 | 51.81112 | 13.11651 | 26403 ft | 432 kts | 308° |
| 2026-05-01 13:27 | 51.84550 | 13.03646 | 26389 ft | 433 kts | 307° |
| 2026-05-01 13:28 | 51.87954 | 12.95582 | 26378 ft | 433 kts | 307° |
| 2026-05-01 13:28 | 51.89643 | 12.91613 | 26368 ft | 433 kts | 307° |
| 2026-05-01 13:29 | 51.93095 | 12.83551 | 26371 ft | 433 kts | 307° |
| 2026-05-01 13:29 | 51.96536 | 12.75528 | 26384 ft | 433 kts | 307° |
| 2026-05-01 13:30 | 52.03382 | 12.59501 | 26376 ft | 433 kts | 307° |
| 2026-05-01 13:31 | 52.06809 | 12.51437 | 26371 ft | 433 kts | 306° |
| 2026-05-01 13:31 | 52.11928 | 12.39342 | 26378 ft | 433 kts | 306° |
| 2026-05-01 13:32 | 52.15341 | 12.31248 | 26387 ft | 433 kts | 306° |
| 2026-05-01 13:33 | 52.20450 | 12.19084 | 26383 ft | 433 kts | 306° |
| 2026-05-01 13:33 | 52.23858 | 12.10939 | 26374 ft | 434 kts | 306° |
| 2026-05-01 13:34 | 52.27229 | 12.02856 | 26382 ft | 433 kts | 306° |
| 2026-05-01 13:34 | 52.30623 | 11.94697 | 26378 ft | 434 kts | 305° |
| 2026-05-01 13:35 | 52.33617 | 11.86160 | 26378 ft | 436 kts | 291° |
| 2026-05-01 13:35 | 52.34452 | 11.81391 | 26390 ft | 437 kts | 282° |
| 2026-05-01 13:35 | 52.34877 | 11.71463 | 26380 ft | 438 kts | 271° |
| 2026-05-01 13:36 | 52.34938 | 11.66494 | 26371 ft | 438 kts | 271° |
| 2026-05-01 13:36 | 52.34998 | 11.61513 | 26370 ft | 438 kts | 271° |
| 2026-05-01 13:36 | 52.35148 | 11.51618 | 26370 ft | 433 kts | 272° |
| 2026-05-01 13:37 | 52.35235 | 11.46729 | 26369 ft | 428 kts | 272° |
| 2026-05-01 13:37 | 52.35325 | 11.41853 | 26376 ft | 429 kts | 272° |
| 2026-05-01 13:37 | 52.35416 | 11.36979 | 26377 ft | 429 kts | 272° |
| 2026-05-01 13:37 | 52.35506 | 11.32083 | 26089 ft | 431 kts | 272° |
| 2026-05-01 13:38 | 52.35677 | 11.22401 | 25061 ft | 421 kts | 271° |
| 2026-05-01 13:38 | 52.35758 | 11.17638 | 24485 ft | 417 kts | 271° |
| 2026-05-01 13:38 | 52.35836 | 11.12906 | 23928 ft | 413 kts | 271° |
| 2026-05-01 13:39 | 52.35912 | 11.08219 | 23268 ft | 410 kts | 271° |
| 2026-05-01 13:39 | 52.35985 | 11.03585 | 22677 ft | 406 kts | 271° |
| 2026-05-01 13:39 | 52.36056 | 10.98983 | 22116 ft | 401 kts | 271° |
| 2026-05-01 13:39 | 52.36125 | 10.94443 | 21574 ft | 397 kts | 271° |
| 2026-05-01 13:40 | 52.36192 | 10.89940 | 21020 ft | 394 kts | 271° |
| 2026-05-01 13:40 | 52.36255 | 10.85475 | 20481 ft | 391 kts | 271° |
| 2026-05-01 13:40 | 52.36332 | 10.81102 | 19951 ft | 388 kts | 274° |
| 2026-05-01 13:40 | 52.36948 | 10.76818 | 19424 ft | 386 kts | 292° |
| 2026-05-01 13:41 | 52.38010 | 10.72796 | 18924 ft | 382 kts | 294° |
| 2026-05-01 13:41 | 52.39108 | 10.68839 | 18377 ft | 380 kts | 295° |
| 2026-05-01 13:41 | 52.40209 | 10.64896 | 17795 ft | 378 kts | 294° |
| 2026-05-01 13:41 | 52.41287 | 10.60989 | 17264 ft | 376 kts | 294° |
| 2026-05-01 13:42 | 52.42349 | 10.57095 | 16758 ft | 372 kts | 294° |
| 2026-05-01 13:42 | 52.43392 | 10.53225 | 16242 ft | 370 kts | 293° |
| 2026-05-01 13:42 | 52.44424 | 10.49373 | 15740 ft | 367 kts | 293° |
| 2026-05-01 13:42 | 52.45443 | 10.45555 | 15246 ft | 365 kts | 292° |
| 2026-05-01 13:43 | 52.46445 | 10.41787 | 14756 ft | 363 kts | 292° |
| 2026-05-01 13:43 | 52.47454 | 10.37992 | 14262 ft | 362 kts | 292° |
| 2026-05-01 13:43 | 52.48455 | 10.34216 | 13720 ft | 361 kts | 292° |
| 2026-05-01 13:43 | 52.49454 | 10.30445 | 13175 ft | 359 kts | 292° |
| 2026-05-01 13:44 | 52.50435 | 10.26737 | 12660 ft | 357 kts | 292° |
| 2026-05-01 13:44 | 52.51432 | 10.22956 | 12162 ft | 355 kts | 292° |
| 2026-05-01 13:44 | 52.52411 | 10.19241 | 11651 ft | 353 kts | 291° |
| 2026-05-01 13:44 | 52.53124 | 10.15413 | 11138 ft | 349 kts | 275° |
| 2026-05-01 13:45 | 52.53286 | 10.11550 | 10901 ft | 333 kts | 270° |
| 2026-05-01 13:45 | 52.53377 | 10.07867 | 10730 ft | 312 kts | 269° |
| 2026-05-01 13:45 | 52.53455 | 10.04408 | 10595 ft | 295 kts | 269° |
| 2026-05-01 13:45 | 52.53531 | 10.01100 | 10482 ft | 285 kts | 269° |
| 2026-05-01 13:46 | 52.53610 | 9.97856 | 10380 ft | 284 kts | 269° |
| 2026-05-01 13:46 | 52.53696 | 9.94550 | 10085 ft | 294 kts | 269° |
| 2026-05-01 13:46 | 52.53788 | 9.91200 | 9744 ft | 293 kts | 269° |
| 2026-05-01 13:46 | 52.53883 | 9.87880 | 9537 ft | 286 kts | 269° |
| 2026-05-01 13:47 | 52.53976 | 9.84723 | 9459 ft | 269 kts | 269° |
| 2026-05-01 13:47 | 52.54062 | 9.81739 | 9335 ft | 253 kts | 269° |
| 2026-05-01 13:47 | 52.54142 | 9.78935 | 9226 ft | 239 kts | 268° |
| 2026-05-01 13:47 | 52.54215 | 9.76299 | 9120 ft | 228 kts | 268° |
| 2026-05-01 13:48 | 52.54290 | 9.73769 | 9034 ft | 216 kts | 268° |
| 2026-05-01 13:48 | 52.54356 | 9.71350 | 8865 ft | 209 kts | 268° |
| 2026-05-01 13:48 | 52.54420 | 9.68969 | 8595 ft | 207 kts | 268° |
| 2026-05-01 13:48 | 52.54486 | 9.66614 | 8294 ft | 205 kts | 268° |
| 2026-05-01 13:49 | 52.54547 | 9.64275 | 7956 ft | 205 kts | 268° |
| 2026-05-01 13:49 | 52.54611 | 9.61932 | 7663 ft | 204 kts | 268° |
| 2026-05-01 13:49 | 52.54672 | 9.59602 | 7364 ft | 204 kts | 268° |
| 2026-05-01 13:49 | 52.54734 | 9.57314 | 7200 ft | 197 kts | 268° |
| 2026-05-01 13:50 | 52.54792 | 9.55081 | 6885 ft | 196 kts | 268° |
| 2026-05-01 13:50 | 52.54850 | 9.52871 | 6552 ft | 195 kts | 268° |
| 2026-05-01 13:50 | 52.54910 | 9.50649 | 6231 ft | 194 kts | 267° |
| 2026-05-01 13:50 | 52.54970 | 9.48442 | 5951 ft | 192 kts | 267° |
| 2026-05-01 13:51 | 52.55027 | 9.46295 | 5794 ft | 180 kts | 267° |
| 2026-05-01 13:51 | 52.55079 | 9.44257 | 5497 ft | 178 kts | 266° |
| 2026-05-01 13:51 | 52.55131 | 9.42267 | 5307 ft | 170 kts | 267° |
| 2026-05-01 13:51 | 52.55179 | 9.40313 | 5258 ft | 171 kts | 266° |
| 2026-05-01 13:52 | 52.55225 | 9.38337 | 5098 ft | 174 kts | 266° |
| 2026-05-01 13:52 | 52.55275 | 9.36342 | 5035 ft | 175 kts | 267° |
| 2026-05-01 13:52 | 52.55009 | 9.34467 | 4964 ft | 168 kts | 226° |
| 2026-05-01 13:52 | 52.54061 | 9.33578 | 4818 ft | 161 kts | 181° |
| 2026-05-01 13:53 | 52.52954 | 9.33493 | 4678 ft | 160 kts | 180° |
| 2026-05-01 13:53 | 52.50774 | 9.33333 | 4279 ft | 152 kts | 178° |
| 2026-05-01 13:53 | 52.49722 | 9.33261 | 4179 ft | 150 kts | 180° |
| 2026-05-01 13:54 | 52.48674 | 9.33187 | 3929 ft | 151 kts | 180° |
| 2026-05-01 13:54 | 52.47722 | 9.33595 | 3788 ft | 143 kts | 137° |
| 2026-05-01 13:54 | 52.47185 | 9.35058 | 3657 ft | 161 kts | 102° |
| 2026-05-01 13:54 | 52.47246 | 9.36902 | 3473 ft | 161 kts | 88° |
| 2026-05-01 13:55 | 52.47338 | 9.38710 | 3268 ft | 155 kts | 88° |
| 2026-05-01 13:55 | 52.47423 | 9.40407 | 3100 ft | 146 kts | 88° |
| 2026-05-01 13:55 | 52.47464 | 9.42100 | 2914 ft | 152 kts | 92° |
| 2026-05-01 13:55 | 52.47568 | 9.43760 | 2961 ft | 149 kts | 102° |
| 2026-05-01 13:56 | 52.47256 | 9.45391 | 2889 ft | 150 kts | 98° |
| 2026-05-01 13:56 | 52.47335 | 9.47035 | 2716 ft | 145 kts | 87° |
| 2026-05-01 13:56 | 52.47343 | 9.48628 | 2505 ft | 138 kts | 96° |
| 2026-05-01 13:56 | 52.47267 | 9.50195 | 2319 ft | 136 kts | 96° |
| 2026-05-01 13:57 | 52.47205 | 9.51767 | 2103 ft | 136 kts | 97° |
| 2026-05-01 13:57 | 52.47180 | 9.52796 | 2010 ft | 132 kts | 93° |
| 2026-05-01 13:57 | 52.47151 | 9.54876 | 1512 ft | 139 kts | 93° |
| 2026-05-01 13:57 | 52.47007 | 9.56341 | 1316 ft | 125 kts | 103° |
| 2026-05-01 13:58 | 52.46973 | 9.57297 | 1238 ft | 129 kts | 89° |
| 2026-05-01 13:58 | 52.47039 | 9.58743 | 1033 ft | 124 kts | 91° |
| 2026-05-01 13:58 | 52.47008 | 9.60127 | 851 ft | 115 kts | 98° |
| 2026-05-01 13:58 | 52.46958 | 9.61485 | 660 ft | 126 kts | 96° |
| 2026-05-01 13:59 | 52.46904 | 9.62922 | 452 ft | 124 kts | 94° |
| 2026-05-01 13:59 | 52.46852 | 9.64267 | 305 ft | 117 kts | 92° |
| 2026-05-01 13:59 | 52.46818 | 9.65604 | 193 ft | 122 kts | 93° |
| 2026-05-01 13:59 | 52.46786 | 9.66840 | 184 ft | 87 kts | 92° |
| 2026-05-01 14:00 | 52.46764 | 9.67590 | 182 ft | 44 kts | 92° |
| 2026-05-01 14:00 | 52.46755 | 9.67842 | 183 ft | 0 kts | 96° |
| 2026-05-01 14:00 | 52.46755 | 9.67843 | 183 ft | 0 kts | 96° |
| 2026-05-01 14:00 | 52.46749 | 9.67932 | 183 ft | 22 kts | 96° |
| 2026-05-01 14:01 | 52.46650 | 9.68149 | 179 ft | 25 kts | 137° |
| 2026-05-01 14:01 | 52.46637 | 9.68167 | 178 ft | 0 kts | 140° |
| 2026-05-01 14:02 | 52.46611 | 9.68202 | 178 ft | 10 kts | 143° |
| 2026-05-01 14:02 | 52.46565 | 9.68258 | 177 ft | 4 kts | 143° |
| 2026-05-01 14:02 | 52.46535 | 9.68296 | 177 ft | 7 kts | 143° |
| 2026-05-01 14:03 | 52.46486 | 9.68355 | 176 ft | 11 kts | 143° |
| 2026-05-01 14:03 | 52.46420 | 9.68435 | 177 ft | 12 kts | 144° |
| 2026-05-01 14:03 | 52.46350 | 9.68528 | 177 ft | 14 kts | 140° |
| 2026-05-01 14:03 | 52.46270 | 9.68627 | 177 ft | 15 kts | 143° |
| 2026-05-01 14:04 | 52.46185 | 9.68736 | 177 ft | 13 kts | 142° |
| 2026-05-01 14:04 | 52.46158 | 9.68770 | 177 ft | 4 kts | 142° |
| 2026-05-01 14:04 | 52.46130 | 9.68805 | 177 ft | 6 kts | 142° |
| 2026-05-01 14:04 | 52.46094 | 9.68851 | 177 ft | 7 kts | 142° |
| 2026-05-01 14:05 | 52.46047 | 9.68910 | 177 ft | 9 kts | 142° |
| 2026-05-01 14:05 | 52.45991 | 9.68981 | 177 ft | 11 kts | 143° |
| 2026-05-01 14:05 | 52.45925 | 9.69063 | 177 ft | 13 kts | 143° |
| 2026-05-01 14:05 | 52.45849 | 9.69157 | 177 ft | 14 kts | 143° |
| 2026-05-01 14:06 | 52.45771 | 9.69264 | 177 ft | 8 kts | 125° |
| 2026-05-01 14:06 | 52.45760 | 9.69329 | 177 ft | 7 kts | 96° |
| 2026-05-01 14:06 | 52.45757 | 9.69417 | 177 ft | 8 kts | 84° |
| 2026-05-01 14:06 | 52.45789 | 9.69506 | 177 ft | 10 kts | 52° |
| 2026-05-01 14:07 | 52.45810 | 9.69550 | 177 ft | 0 kts | 52° |